createdAt,value
2023-02-16T00:00:06.844Z,0
2023-02-16T00:02:08.194Z,0
2023-02-16T00:04:09.582Z,0
2023-02-16T00:06:11.017Z,0.14
2023-02-16T00:08:12.927Z,0.842
2023-02-16T00:10:14.891Z,0.842
2023-02-16T00:12:16.683Z,1.263
2023-02-16T00:14:17.818Z,0
2023-02-16T00:16:19.036Z,0
2023-02-16T00:18:20.044Z,0
2023-02-16T00:20:21.918Z,0
2023-02-16T00:22:23.787Z,0
2023-02-16T00:24:25.538Z,1.965
2023-02-16T00:26:27.483Z,2.246
2023-02-16T00:28:28.771Z,0.28
2023-02-16T00:30:30.586Z,0
2023-02-16T00:32:32.197Z,2.106
2023-02-16T00:34:33.399Z,1.965
2023-02-16T00:36:35.178Z,0.14
2023-02-16T00:38:36.714Z,0.14
2023-02-16T00:40:38.553Z,0
2023-02-16T00:42:39.811Z,0
2023-02-16T00:44:41.388Z,0
2023-02-16T00:46:42.690Z,0
2023-02-16T00:48:45.253Z,0
2023-02-16T00:50:45.861Z,0
2023-02-16T00:52:47.916Z,0
2023-02-16T00:54:49.158Z,0
2023-02-16T00:56:51.134Z,2.246
2023-02-16T00:58:52.571Z,1.263
2023-02-16T01:00:54.249Z,0
2023-02-16T01:02:55.835Z,0.702
2023-02-16T01:03:39.775Z,1.965
2023-02-16T01:05:41.348Z,1.263
2023-02-16T01:07:42.892Z,1.684
2023-02-16T01:09:44.804Z,2.667
2023-02-16T01:11:46.534Z,0.28
2023-02-16T01:13:47.694Z,2.246
2023-02-16T01:15:57.529Z,1.825
2023-02-16T01:17:50.816Z,0
2023-02-16T01:19:51.994Z,0
2023-02-16T01:21:53.960Z,0.561
2023-02-16T01:23:55.296Z,2.667
2023-02-16T01:25:56.974Z,0.421
2023-02-16T01:27:58.471Z,0
2023-02-16T01:30:00.003Z,0
2023-02-16T01:32:01.538Z,1.965
2023-02-16T01:34:03.309Z,0
2023-02-16T01:36:05.001Z,0.842
2023-02-16T01:40:08.138Z,0
2023-02-16T01:42:09.626Z,1.123
2023-02-16T01:44:11.493Z,0
2023-02-16T01:46:12.837Z,3.65
2023-02-16T01:50:16.270Z,0
2023-02-16T01:52:18.179Z,0.842
2023-02-16T01:54:19.751Z,2.106
2023-02-16T01:56:21.394Z,0.28
2023-02-16T01:58:22.640Z,1.825
2023-02-16T02:00:23.978Z,0.982
2023-02-16T02:02:25.545Z,0
2023-02-16T02:04:27.370Z,0
2023-02-16T02:06:29.054Z,0.842
2023-02-16T02:08:30.967Z,1.263
2023-02-16T02:10:32.962Z,0
2023-02-16T02:12:34.056Z,0
2023-02-16T02:14:35.395Z,0
2023-02-16T02:16:36.457Z,0
2023-02-16T02:18:37.881Z,0
2023-02-16T02:22:40.447Z,0
2023-02-16T02:24:41.735Z,0
2023-02-16T02:26:43.557Z,0
2023-02-16T02:28:44.681Z,0
2023-02-16T02:32:48.347Z,1.263
2023-02-16T02:34:50.109Z,0
2023-02-16T02:36:51.325Z,0
2023-02-16T02:38:53.402Z,0
2023-02-16T02:40:55.719Z,0
2023-02-16T02:42:56.161Z,0
2023-02-16T02:44:57.283Z,0
2023-02-16T02:46:59.123Z,0
2023-02-16T02:49:00.992Z,0.421
2023-02-16T02:51:02.471Z,0
2023-02-16T02:55:05.516Z,0
2023-02-16T02:57:06.610Z,2.527
2023-02-16T02:59:08.104Z,1.965
2023-02-16T03:01:09.365Z,1.123
2023-02-16T03:05:11.936Z,1.544
2023-02-16T03:07:13.974Z,1.404
2023-02-16T03:09:15.863Z,1.544
2023-02-16T03:11:16.940Z,0.421
2023-02-16T03:15:20.079Z,0
2023-02-16T03:17:21.374Z,0
2023-02-16T03:19:22.845Z,0
2023-02-16T03:21:23.957Z,0
2023-02-16T03:23:25.632Z,0
2023-02-16T03:25:27.293Z,1.965
2023-02-16T03:27:28.366Z,0
2023-02-16T03:29:30.230Z,0.982
2023-02-16T03:31:32.384Z,0
2023-02-16T03:33:33.929Z,1.684
2023-02-16T03:35:35.771Z,0.702
2023-02-16T03:37:37.026Z,0
2023-02-16T03:39:38.399Z,0
2023-02-16T03:41:40.472Z,0
2023-02-16T03:43:42.150Z,0
2023-02-16T03:47:45.184Z,0
2023-02-16T03:49:46.939Z,0
2023-02-16T03:51:48.973Z,0
2023-02-16T03:53:50.644Z,0
2023-02-16T03:57:54.083Z,0
2023-02-16T03:59:55.822Z,0
2023-02-16T04:01:56.466Z,0
2023-02-16T04:03:57.850Z,0
2023-02-16T04:05:59.453Z,0
2023-02-16T04:08:01.313Z,0
2023-02-16T04:10:02.905Z,0
2023-02-16T04:12:04.993Z,0
2023-02-16T04:14:06.654Z,0
2023-02-16T04:16:08.805Z,0
2023-02-16T04:18:10.254Z,0
2023-02-16T04:20:11.916Z,0
2023-02-16T04:22:13.852Z,0
2023-02-16T04:24:14.969Z,0
2023-02-16T04:26:16.444Z,0
2023-02-16T04:30:19.849Z,0
2023-02-16T04:32:21.847Z,0
2023-02-16T04:34:23.280Z,0.982
2023-02-16T04:36:24.744Z,1.544
2023-02-16T04:38:26.744Z,0.982
2023-02-16T04:42:29.920Z,0
2023-02-16T04:44:31.276Z,0
2023-02-16T04:46:32.490Z,0.982
2023-02-16T04:48:34.407Z,1.123
2023-02-16T04:50:36.441Z,0
2023-02-16T04:52:37.827Z,0
2023-02-16T04:54:39.440Z,0
2023-02-16T04:56:41.511Z,0
2023-02-16T04:58:43.346Z,0
2023-02-16T05:02:47.132Z,0
2023-02-16T05:04:48.425Z,0
2023-02-16T05:06:49.535Z,0
2023-02-16T05:08:51.495Z,0
2023-02-16T05:12:54.043Z,0
2023-02-16T05:14:55.896Z,0
2023-02-16T05:16:57.036Z,0
2023-02-16T05:18:59.023Z,0
2023-02-16T05:21:00.854Z,0
2023-02-16T05:23:02.695Z,0
2023-02-16T05:25:04.547Z,0
2023-02-16T05:27:06.177Z,0
2023-02-16T05:29:07.752Z,0
2023-02-16T05:31:09.031Z,0
2023-02-16T05:33:10.771Z,0
2023-02-16T05:35:12.006Z,0
2023-02-16T05:37:13.922Z,0
2023-02-16T05:39:15.260Z,0
2023-02-16T05:41:16.670Z,0
2023-02-16T05:45:19.600Z,0
2023-02-16T05:47:20.764Z,0
2023-02-16T05:49:22.703Z,0
2023-02-16T05:51:24.274Z,0
2023-02-16T05:55:28.059Z,0
2023-02-16T05:57:30.003Z,0
2023-02-16T05:59:32.076Z,0
2023-02-16T06:01:33.625Z,0
2023-02-16T06:03:35.652Z,0
2023-02-16T06:05:37.181Z,0
2023-02-16T06:07:38.939Z,0
2023-02-16T06:09:40.171Z,0
2023-02-16T06:11:41.291Z,0
2023-02-16T06:13:43.324Z,0
2023-02-16T06:15:44.976Z,0
2023-02-16T06:17:46.194Z,0
2023-02-16T06:19:47.399Z,0
2023-02-16T06:21:48.923Z,0
2023-02-16T06:23:50.172Z,0
2023-02-16T06:27:53.135Z,0
2023-02-16T06:29:54.334Z,0
2023-02-16T06:31:56.419Z,0
2023-02-16T06:33:58.093Z,0
2023-02-16T06:38:01.662Z,0
2023-02-16T06:40:03.051Z,0
2023-02-16T06:42:04.560Z,0
2023-02-16T06:44:06.085Z,0
2023-02-16T06:46:08.132Z,0
2023-02-16T06:50:11.034Z,0
2023-02-16T06:52:12.475Z,0
2023-02-16T06:54:13.731Z,0
2023-02-16T06:56:15.779Z,0
2023-02-16T06:58:17.730Z,0
2023-02-16T07:00:19.698Z,0
2023-02-16T07:02:21.365Z,0
2023-02-16T07:04:23.088Z,0
2023-02-16T07:06:24.720Z,1.263
2023-02-16T07:10:32.557Z,1.123
2023-02-16T07:12:29.382Z,0.14
2023-02-16T07:14:31.459Z,0
2023-02-16T07:16:33.385Z,0
2023-02-16T07:20:35.950Z,0
2023-02-16T07:22:37.258Z,0
2023-02-16T07:24:38.586Z,0
2023-02-16T07:26:40.181Z,0
2023-02-16T07:28:41.602Z,0
2023-02-16T07:30:43.461Z,0
2023-02-16T07:32:45.363Z,0
2023-02-16T07:34:47.430Z,0
2023-02-16T07:36:49.399Z,0
2023-02-16T07:38:50.890Z,0
2023-02-16T07:42:54.696Z,0
2023-02-16T07:44:56.331Z,0
2023-02-16T07:46:57.754Z,0
2023-02-16T07:48:59.172Z,0
2023-02-16T07:49:43.122Z,0
2023-02-16T07:51:44.313Z,0
2023-02-16T07:53:46.113Z,0
2023-02-16T07:57:49.008Z,0
2023-02-16T07:59:50.485Z,0
2023-02-16T08:01:51.878Z,0
2023-02-16T08:03:53.540Z,0
2023-02-16T08:05:54.744Z,0.421
2023-02-16T08:07:56.371Z,0
2023-02-16T08:09:57.742Z,0
2023-02-16T08:11:58.759Z,0.561
2023-02-16T08:14:00.922Z,0
2023-02-16T08:16:02.429Z,0.702
2023-02-16T08:18:03.172Z,0.14
2023-02-16T08:20:04.690Z,0
2023-02-16T08:22:07.319Z,0
2023-02-16T08:24:08.358Z,0
2023-02-16T08:26:10.217Z,1.544
2023-02-16T08:28:11.742Z,1.263
2023-02-16T08:30:13.127Z,0.14
2023-02-16T08:32:14.265Z,0.982
2023-02-16T08:34:15.764Z,1.263
2023-02-16T08:36:17.031Z,3.369
2023-02-16T08:38:18.222Z,1.684
2023-02-16T08:40:19.626Z,3.088
2023-02-16T08:42:21.395Z,2.667
2023-02-16T08:44:23.331Z,1.825
2023-02-16T08:46:24.860Z,2.667
2023-02-16T08:48:27.169Z,1.404
2023-02-16T08:50:28.373Z,0.421
2023-02-16T08:52:29.558Z,0.982
2023-02-16T08:54:31.213Z,0.561
2023-02-16T08:56:32.430Z,1.404
2023-02-16T08:58:34.134Z,0
2023-02-16T09:00:35.171Z,0
2023-02-16T09:02:45.371Z,0.28
2023-02-16T09:04:38.144Z,0
2023-02-16T09:06:39.692Z,0.14
2023-02-16T09:08:40.732Z,1.825
2023-02-16T09:10:42.624Z,3.229
2023-02-16T09:12:43.594Z,2.667
2023-02-16T09:14:45.386Z,1.684
2023-02-16T09:16:46.960Z,0.561
2023-02-16T09:18:48.201Z,1.965
2023-02-16T09:20:49.165Z,2.386
2023-02-16T09:22:50.624Z,1.684
2023-02-16T09:24:52.061Z,0.982
2023-02-16T09:28:54.253Z,0
2023-02-16T09:30:55.448Z,0.14
2023-02-16T09:32:57.121Z,0
2023-02-16T09:34:58.183Z,1.825
2023-02-16T09:39:01.531Z,0.702
2023-02-16T09:41:03.480Z,1.263
2023-02-16T09:43:05.596Z,0
2023-02-16T09:45:07.153Z,0
2023-02-16T09:47:08.276Z,0.982
2023-02-16T09:49:10.039Z,0.702
2023-02-16T09:51:11.456Z,0.842
2023-02-16T09:53:12.802Z,0.561
2023-02-16T09:55:14.574Z,0.561
2023-02-16T09:57:16.189Z,1.123
2023-02-16T09:59:17.615Z,1.404
2023-02-16T10:01:18.742Z,0
2023-02-16T10:03:20.464Z,1.123
2023-02-16T10:05:22.112Z,1.404
2023-02-16T10:07:23.470Z,1.544
2023-02-16T10:11:25.918Z,1.263
2023-02-16T10:13:26.959Z,0.14
2023-02-16T10:15:27.992Z,0.421
2023-02-16T10:17:29.548Z,0.561
2023-02-16T10:21:32.014Z,0.982
2023-02-16T10:23:33.638Z,0
2023-02-16T10:25:35.386Z,0.702
2023-02-16T10:27:36.827Z,0.842
2023-02-16T10:29:37.959Z,1.544
2023-02-16T10:31:39.666Z,1.684
2023-02-16T10:33:40.901Z,1.123
2023-02-16T10:35:42.608Z,2.527
2023-02-16T10:39:45.176Z,4.071
2023-02-16T10:41:46.062Z,2.667
2023-02-16T10:43:47.448Z,6.318
2023-02-16T10:45:51.872Z,2.386
2023-02-16T10:47:49.703Z,5.756
2023-02-16T10:49:50.869Z,7.862
2023-02-16T10:51:52.222Z,5.756
2023-02-16T10:53:53.409Z,7.16
2023-02-16T10:55:54.909Z,7.02
2023-02-16T10:57:56.182Z,7.16
2023-02-16T10:59:57.941Z,4.492
2023-02-16T11:01:59.778Z,7.02
2023-02-16T11:04:01.495Z,2.527
2023-02-16T11:06:03.180Z,7.02
2023-02-16T11:08:05.460Z,4.492
2023-02-16T11:10:06.459Z,5.054
2023-02-16T11:12:07.696Z,3.79
2023-02-16T11:14:09.314Z,6.598
2023-02-16T11:16:10.758Z,8.424
2023-02-16T11:18:12.164Z,7.581
2023-02-16T11:20:13.597Z,4.492
2023-02-16T11:22:15.327Z,4.212
2023-02-16T11:24:16.788Z,4.914
2023-02-16T11:26:17.986Z,7.862
2023-02-16T11:28:19.613Z,8.283
2023-02-16T11:30:21.078Z,5.054
2023-02-16T11:32:22.534Z,6.739
2023-02-16T11:34:23.934Z,6.739
2023-02-16T11:36:25.093Z,7.02
2023-02-16T11:38:26.764Z,5.756
2023-02-16T11:40:27.985Z,4.212
2023-02-16T11:42:28.976Z,7.862
2023-02-16T11:44:29.859Z,7.862
2023-02-16T11:46:31.518Z,7.581
2023-02-16T11:48:33.029Z,7.3
2023-02-16T11:52:35.686Z,9.547
2023-02-16T11:54:36.832Z,9.266
2023-02-16T11:56:38.642Z,5.194
2023-02-16T11:58:40.458Z,5.475
2023-02-16T12:00:41.684Z,5.896
2023-02-16T12:02:42.822Z,5.896
2023-02-16T12:04:44.551Z,7.862
2023-02-16T12:06:46.046Z,6.458
2023-02-16T12:08:46.988Z,3.79
2023-02-16T12:10:48.181Z,3.229
2023-02-16T12:12:49.544Z,2.667
2023-02-16T12:14:51.130Z,2.808
2023-02-16T12:16:52.418Z,6.879
2023-02-16T12:18:53.741Z,4.773
2023-02-16T12:20:54.996Z,3.931
2023-02-16T12:22:56.465Z,6.598
2023-02-16T12:24:57.981Z,6.739
2023-02-16T12:26:59.422Z,6.879
2023-02-16T12:29:00.892Z,7.02
2023-02-16T12:31:02.793Z,2.667
2023-02-16T12:35:05.540Z,2.808
2023-02-16T12:37:06.685Z,2.808
2023-02-16T12:39:07.906Z,4.914
2023-02-16T12:41:08.810Z,4.071
2023-02-16T12:45:12.728Z,4.352
2023-02-16T12:47:13.715Z,3.51
2023-02-16T12:49:14.862Z,7.02
2023-02-16T12:51:16.107Z,5.335
2023-02-16T12:53:17.648Z,14.18
2023-02-16T12:55:18.707Z,8.564
2023-02-16T12:57:20.336Z,8.564
2023-02-16T12:59:22.205Z,6.458
2023-02-16T13:01:23.361Z,7.722
2023-02-16T13:03:25.140Z,8.985
2023-02-16T13:05:26.142Z,2.808
2023-02-16T13:07:27.502Z,11.512
2023-02-16T13:09:29.257Z,7.862
2023-02-16T13:11:31.033Z,5.194
2023-02-16T13:13:32.061Z,3.79
2023-02-16T13:17:34.685Z,7.16
2023-02-16T13:19:36.897Z,4.212
2023-02-16T13:21:50.306Z,9.406
2023-02-16T13:23:39.366Z,5.616
2023-02-16T13:27:41.759Z,10.951
2023-02-16T13:29:43.379Z,6.739
2023-02-16T13:31:44.310Z,9.968
2023-02-16T13:33:45.998Z,4.914
2023-02-16T13:35:47.342Z,7.441
2023-02-16T13:37:48.729Z,6.739
2023-02-16T13:39:49.685Z,6.598
2023-02-16T13:41:52.247Z,5.475
2023-02-16T13:43:54.034Z,6.458
2023-02-16T13:45:55.902Z,4.633
2023-02-16T13:47:57.475Z,7.581
2023-02-16T13:49:58.945Z,7.581
2023-02-16T13:52:00.718Z,8.143
2023-02-16T13:54:01.969Z,6.177
2023-02-16T13:56:03.440Z,6.598
2023-02-16T13:58:05.113Z,5.194
2023-02-16T14:00:06.339Z,8.564
2023-02-16T14:02:07.656Z,6.037
2023-02-16T14:04:08.876Z,9.968
2023-02-16T14:06:09.941Z,5.756
2023-02-16T14:08:11.660Z,10.389
2023-02-16T14:10:14.036Z,10.81
2023-02-16T14:12:15.586Z,7.3
2023-02-16T14:14:17.372Z,4.352
2023-02-16T14:16:18.839Z,7.16
2023-02-16T14:18:19.888Z,2.948
2023-02-16T14:20:21.201Z,4.071
2023-02-16T14:22:22.633Z,5.756
2023-02-16T14:24:24.411Z,3.088
2023-02-16T14:26:26.004Z,9.126
2023-02-16T14:28:27.665Z,8.704
2023-02-16T14:30:29.588Z,4.914
2023-02-16T14:32:30.477Z,9.968
2023-02-16T14:34:32.073Z,8.704
2023-02-16T14:35:15.858Z,4.212
2023-02-16T14:37:16.785Z,5.335
2023-02-16T14:39:17.774Z,4.633
2023-02-16T14:41:18.978Z,6.879
2023-02-16T14:43:19.943Z,8.002
2023-02-16T14:45:21.725Z,5.896
2023-02-16T14:47:22.948Z,3.369
2023-02-16T14:49:24.397Z,8.845
2023-02-16T14:53:27.365Z,4.633
2023-02-16T14:55:28.318Z,6.318
2023-02-16T14:57:29.747Z,6.177
2023-02-16T14:59:31.495Z,4.352
2023-02-16T15:03:34.931Z,4.071
2023-02-16T15:05:36.832Z,4.633
2023-02-16T15:07:38.660Z,2.246
2023-02-16T15:09:40.180Z,5.194
2023-02-16T15:11:41.736Z,4.633
2023-02-16T15:13:43.204Z,5.194
2023-02-16T15:15:44.807Z,5.054
2023-02-16T15:17:45.598Z,1.684
2023-02-16T15:19:46.990Z,4.352
2023-02-16T15:21:48.329Z,1.825
2023-02-16T15:23:49.853Z,0.28
2023-02-16T15:25:51.555Z,0.982
2023-02-16T15:27:52.956Z,1.684
2023-02-16T15:29:54.338Z,0.14
2023-02-16T15:31:55.604Z,1.404
2023-02-16T15:35:58.424Z,4.492
2023-02-16T15:38:00.259Z,2.948
2023-02-16T15:40:24.190Z,0.421
2023-02-16T15:42:02.913Z,3.369
2023-02-16T15:46:05.765Z,1.404
2023-02-16T15:48:06.370Z,0.561
2023-02-16T15:50:08.267Z,1.544
2023-02-16T15:52:09.490Z,0
2023-02-16T15:54:10.796Z,0
2023-02-16T15:56:12.312Z,0
2023-02-16T15:58:13.674Z,0
2023-02-16T16:00:15.396Z,0
2023-02-16T16:02:16.502Z,0
2023-02-16T16:04:17.411Z,0
2023-02-16T16:06:19.050Z,0
2023-02-16T16:08:20.846Z,0
2023-02-16T16:10:21.900Z,0
2023-02-16T16:12:23.639Z,1.544
2023-02-16T16:14:24.896Z,0
2023-02-16T16:18:27.601Z,0
2023-02-16T16:20:28.737Z,0
2023-02-16T16:22:29.821Z,0
2023-02-16T16:24:30.748Z,0
2023-02-16T16:26:31.728Z,0
2023-02-16T16:28:32.743Z,0
2023-02-16T16:30:34.275Z,0
2023-02-16T16:32:35.949Z,0
2023-02-16T16:34:37.355Z,0
2023-02-16T16:36:38.534Z,0
2023-02-16T16:38:39.617Z,0
2023-02-16T16:40:40.991Z,0
2023-02-16T16:42:42.651Z,0
2023-02-16T16:44:44.504Z,0
2023-02-16T16:46:46.154Z,0
2023-02-16T16:48:47.628Z,0
2023-02-16T16:50:48.541Z,0
2023-02-16T16:52:50.349Z,0
2023-02-16T16:54:51.464Z,0
2023-02-16T16:56:52.474Z,0
2023-02-16T16:58:53.423Z,0
2023-02-16T17:00:54.552Z,0
2023-02-16T17:02:55.709Z,0
2023-02-16T17:04:57.154Z,0
2023-02-16T17:06:58.110Z,0
2023-02-16T17:11:01.275Z,0
2023-02-16T17:13:02.520Z,0
2023-02-16T17:17:05.320Z,0
2023-02-16T17:19:07.060Z,0
2023-02-16T17:21:08.155Z,0.982
2023-02-16T17:23:09.512Z,3.229
2023-02-16T17:27:11.949Z,0
2023-02-16T17:29:13.087Z,0.561
2023-02-16T17:31:14.397Z,0
2023-02-16T17:33:15.338Z,0.421
2023-02-16T17:35:16.356Z,4.071
2023-02-16T17:37:19.497Z,2.246
2023-02-16T17:39:18.756Z,4.212
2023-02-16T17:41:20.380Z,2.106
2023-02-16T17:43:22.177Z,1.123
2023-02-16T17:45:23.705Z,3.931
2023-02-16T17:49:26.578Z,3.51
2023-02-16T17:51:27.729Z,2.948
2023-02-16T17:53:29.270Z,0.28
2023-02-16T17:55:30.617Z,2.106
2023-02-16T17:59:33.916Z,2.106
2023-02-16T18:01:34.246Z,0
2023-02-16T18:03:35.471Z,0
2023-02-16T18:05:36.465Z,0
2023-02-16T18:09:39.332Z,1.263
2023-02-16T18:11:40.709Z,0.702
2023-02-16T18:13:42.303Z,1.825
2023-02-16T18:15:43.271Z,0
2023-02-16T18:17:44.569Z,0.561
2023-02-16T18:19:46.317Z,2.246
2023-02-16T18:21:47.572Z,0.14
2023-02-16T18:23:48.779Z,0
2023-02-16T18:25:50.094Z,0
2023-02-16T18:27:51.332Z,2.527
2023-02-16T18:29:52.896Z,2.667
2023-02-16T18:31:53.943Z,0.28
2023-02-16T18:33:55.790Z,1.825
2023-02-16T18:35:57.023Z,0.982
2023-02-16T18:37:58.693Z,2.106
2023-02-16T18:39:59.931Z,0
2023-02-16T18:42:01.337Z,0.702
2023-02-16T18:44:02.684Z,1.263
2023-02-16T18:46:04.466Z,2.106
2023-02-16T18:48:05.571Z,0
2023-02-16T18:50:06.811Z,0.14
2023-02-16T18:52:08.627Z,1.404
2023-02-16T18:54:09.618Z,4.633
2023-02-16T18:56:11.359Z,1.684
2023-02-16T18:58:12.763Z,0.421
2023-02-16T19:00:13.923Z,5.616
2023-02-16T19:02:15.178Z,2.667
2023-02-16T19:04:16.681Z,3.79
2023-02-16T19:06:17.897Z,3.79
2023-02-16T19:08:19.057Z,1.544
2023-02-16T19:10:20.147Z,2.527
2023-02-16T19:12:21.554Z,1.263
2023-02-16T19:14:22.693Z,3.088
2023-02-16T19:16:24.040Z,5.335
2023-02-16T19:18:25.371Z,3.229
2023-02-16T19:20:26.381Z,3.51
2023-02-16T19:22:27.525Z,2.246
2023-02-16T19:24:28.411Z,0
2023-02-16T19:26:29.568Z,0.561
2023-02-16T19:30:32.191Z,2.386
2023-02-16T19:32:33.151Z,2.808
2023-02-16T19:34:34.471Z,3.65
2023-02-16T19:36:35.680Z,7.581
2023-02-16T19:40:38.607Z,5.756
2023-02-16T19:42:40.030Z,4.071
2023-02-16T19:44:41.055Z,5.194
2023-02-16T19:46:42.605Z,2.106
2023-02-16T19:50:45.836Z,5.054
2023-02-16T19:52:47.568Z,6.598
2023-02-16T19:54:48.476Z,4.914
2023-02-16T19:56:50.081Z,6.879
2023-02-16T19:58:51.578Z,6.739
2023-02-16T20:00:52.755Z,3.65
2023-02-16T20:02:54.320Z,1.123
2023-02-16T20:04:55.535Z,7.441
2023-02-16T20:06:57.266Z,7.862
2023-02-16T20:08:58.773Z,2.106
2023-02-16T20:11:00.090Z,3.65
2023-02-16T20:13:01.160Z,3.51
2023-02-16T20:15:02.814Z,1.263
2023-02-16T20:17:04.562Z,4.773
2023-02-16T20:19:05.893Z,1.965
2023-02-16T20:21:06.903Z,4.914
2023-02-16T20:23:08.523Z,6.598
2023-02-16T20:25:10.221Z,3.79
2023-02-16T20:27:11.963Z,4.633
2023-02-16T20:29:13.299Z,8.704
2023-02-16T20:31:14.958Z,4.914
2023-02-16T20:33:15.881Z,7.581
2023-02-16T20:35:17.416Z,6.598
2023-02-16T20:37:18.499Z,0.421
2023-02-16T20:39:19.921Z,4.352
2023-02-16T20:41:21.590Z,5.194
2023-02-16T20:43:23.384Z,1.404
2023-02-16T20:45:25.121Z,3.79
2023-02-16T20:47:26.550Z,8.002
2023-02-16T20:49:27.758Z,2.386
2023-02-16T20:51:29.092Z,3.79
2023-02-16T20:53:30.509Z,4.773
2023-02-16T20:55:31.610Z,8.704
2023-02-16T20:57:32.928Z,1.825
2023-02-16T20:59:34.741Z,4.352
2023-02-16T21:01:36.074Z,5.194
2023-02-16T21:03:37.361Z,1.825
2023-02-16T21:05:38.342Z,3.369
2023-02-16T21:07:39.304Z,3.229
2023-02-16T21:09:41.055Z,3.65
2023-02-16T21:11:42.375Z,1.825
2023-02-16T21:13:43.963Z,0.702
2023-02-16T21:15:44.966Z,0.421
2023-02-16T21:17:46.293Z,2.386
2023-02-16T21:19:57.045Z,2.667
2023-02-16T21:20:40.789Z,2.527
2023-02-16T21:22:41.960Z,5.335
2023-02-16T21:24:42.920Z,3.229
2023-02-16T21:26:44.585Z,1.404
2023-02-16T21:28:45.972Z,1.684
2023-02-16T21:30:46.917Z,1.825
2023-02-16T21:32:49.258Z,3.369
2023-02-16T21:34:49.589Z,0.28
2023-02-16T21:36:51.369Z,3.51
2023-02-16T21:38:53.090Z,4.914
2023-02-16T21:40:54.244Z,4.212
2023-02-16T21:42:56.047Z,2.808
2023-02-16T21:44:57.197Z,2.808
2023-02-16T21:46:58.864Z,3.369
2023-02-16T21:49:00.405Z,4.773
2023-02-16T21:51:01.508Z,3.229
2023-02-16T21:53:03.011Z,3.931
2023-02-16T21:55:04.684Z,4.071
2023-02-16T21:57:05.986Z,0.14
2023-02-16T21:59:07.358Z,2.246
2023-02-16T22:01:08.388Z,0.421
2023-02-16T22:03:09.716Z,2.386
2023-02-16T22:05:11.228Z,1.684
2023-02-16T22:07:13.002Z,2.246
2023-02-16T22:09:14.259Z,3.79
2023-02-16T22:11:15.536Z,1.544
2023-02-16T22:13:16.703Z,0.28
2023-02-16T22:15:18.567Z,3.79
2023-02-16T22:17:20.435Z,3.79
2023-02-16T22:19:21.855Z,0
2023-02-16T22:21:23.736Z,0
2023-02-16T22:23:24.857Z,0.14
2023-02-16T22:25:25.938Z,0
2023-02-16T22:27:27.174Z,0.842
2023-02-16T22:29:28.812Z,0.14
2023-02-16T22:31:30.801Z,3.369
2023-02-16T22:33:31.767Z,0.561
2023-02-16T22:35:33.274Z,3.51
2023-02-16T22:37:34.337Z,3.931
2023-02-16T22:39:36.035Z,1.263
2023-02-16T22:41:37.519Z,0.982
2023-02-16T22:43:39.016Z,1.404
2023-02-16T22:45:40.426Z,1.965
2023-02-16T22:47:42.048Z,3.51
2023-02-16T22:49:43.580Z,4.212
2023-02-16T22:51:45.068Z,5.756
2023-02-16T22:53:46.821Z,2.808
2023-02-16T22:55:48.249Z,2.948
2023-02-16T22:57:49.191Z,3.51
2023-02-16T22:59:50.428Z,2.667
2023-02-16T23:01:51.551Z,2.527
2023-02-16T23:03:52.923Z,2.808
2023-02-16T23:05:54.762Z,8.002
2023-02-16T23:07:56.001Z,2.106
2023-02-16T23:09:56.979Z,3.931
2023-02-16T23:13:59.836Z,1.404
2023-02-16T23:16:01.334Z,3.51
2023-02-16T23:18:02.560Z,1.684
2023-02-16T23:20:03.775Z,0
2023-02-16T23:24:06.795Z,1.965
2023-02-16T23:26:08.232Z,1.404
2023-02-16T23:28:09.221Z,1.965
2023-02-16T23:30:10.667Z,2.246
2023-02-16T23:32:12.268Z,0.14
2023-02-16T23:34:13.625Z,0.28
2023-02-16T23:36:15.200Z,1.123
2023-02-16T23:38:17.026Z,6.739
2023-02-16T23:40:18.848Z,1.825
2023-02-16T23:42:20.582Z,1.684
2023-02-16T23:44:21.566Z,2.106
2023-02-16T23:46:23.158Z,0.982
2023-02-16T23:48:24.378Z,2.246
2023-02-16T23:50:25.448Z,2.667
2023-02-16T23:52:26.781Z,1.123
2023-02-16T23:56:29.262Z,0.421
2023-02-16T23:58:30.659Z,1.404
